Time;durP1;ratioP1;P1;durP2;ratioP2;P2;SDS_P1;SDS_P2;PMS_P1;PMS_P2;Temp;Humidity;BMP_temperature;BMP_pressure;BME280_temperature;BME280_humidity;BME280_pressure;Samples;Min_cycle;Max_cycle;Signal;HPM_P1;HPM_P2
2022/04/03 00:00:41;;;;;;;18.30;11.67;;;;;;;;;;5047109;28;20409;-79
2022/04/03 00:03:08;;;;;;;17.60;14.03;;;;;;;;;;5047677;28;20505;-79
2022/04/03 00:05:38;;;;;;;20.03;13.43;;;;;;;;;;5047080;28;20391;-79
2022/04/03 00:08:04;;;;;;;18.83;13.57;;;;;;;;;;5046955;28;20414;-79
2022/04/03 00:10:30;;;;;;;13.40;11.50;;;;;;;;;;5046743;28;20402;-79
2022/04/03 00:12:56;;;;;;;19.27;13.47;;;;;;;;;;5047179;28;20402;-79
2022/04/03 00:15:22;;;;;;;18.03;13.67;;;;;;;;;;5046953;28;20402;-79
2022/04/03 00:17:48;;;;;;;17.53;12.73;;;;;;;;;;5028235;28;20422;-79
2022/04/03 00:20:16;;;;;;;15.83;11.70;;;;;;;;;;5048083;28;20482;-79
2022/04/03 00:22:47;;;;;;;15.43;11.70;;;;;;;;;;5048919;28;20411;-78
2022/04/03 00:25:14;;;;;;;15.43;12.00;;;;;;;;;;5057082;28;20410;-78
2022/04/03 00:27:40;;;;;;;16.20;12.83;;;;;;;;;;5057732;28;20580;-79
2022/04/03 00:30:07;;;;;;;15.20;11.73;;;;;;;;;;5047102;28;20391;-79
2022/04/03 00:32:33;;;;;;;16.20;11.03;;;;;;;;;;5046457;28;20414;-79
2022/04/03 00:34:59;;;;;;;14.13;10.70;;;;;;;;;;5045636;28;20489;-79
2022/04/03 00:37:25;;;;;;;20.10;11.50;;;;;;;;;;5056769;28;20415;-79
2022/04/03 00:39:51;;;;;;;15.50;12.07;;;;;;;;;;5040595;28;20489;-79
2022/04/03 00:42:17;;;;;;;19.27;13.00;;;;;;;;;;5041592;28;20595;-78
2022/04/03 00:44:43;;;;;;;17.83;14.03;;;;;;;;;;5058804;28;20394;-78
2022/04/03 00:47:09;;;;;;;17.30;13.23;;;;;;;;;;5039828;28;20431;-79
2022/04/03 00:49:36;;;;;;;18.77;13.60;;;;;;;;;;5057907;28;20407;-78
2022/04/03 00:52:02;;;;;;;15.23;10.60;;;;;;;;;;5055342;28;20463;-79
2022/04/03 00:54:29;;;;;;;16.10;12.63;;;;;;;;;;5046422;28;20407;-79
2022/04/03 00:56:55;;;;;;;24.43;14.50;;;;;;;;;;5043553;28;20431;-78
2022/04/03 00:59:21;;;;;;;20.50;15.00;;;;;;;;;;5044635;28;20522;-79
2022/04/03 01:01:48;;;;;;;21.53;16.07;;;;;;;;;;5046472;28;20402;-80
2022/04/03 01:04:14;;;;;;;21.77;15.57;;;;;;;;;;5046135;28;20842;-79
2022/04/03 01:06:40;;;;;;;24.40;14.50;;;;;;;;;;5045947;28;20427;-79
2022/04/03 01:09:07;;;;;;;23.20;16.80;;;;;;;;;;5046333;28;20406;-79
2022/04/03 01:11:33;;;;;;;24.33;18.00;;;;;;;;;;5046087;28;20415;-79
2022/04/03 01:13:59;;;;;;;22.40;15.10;;;;;;;;;;5028468;28;20411;-79
2022/04/03 01:16:25;;;;;;;17.60;13.93;;;;;;;;;;5045575;28;20433;-79
2022/04/03 01:18:51;;;;;;;20.90;15.20;;;;;;;;;;5027970;28;20445;-79
2022/04/03 01:21:18;;;;;;;17.47;14.07;;;;;;;;;;5045200;28;20429;-79
2022/04/03 01:23:45;;;;;;;22.17;15.13;;;;;;;;;;5045737;28;20403;-79
2022/04/03 01:26:11;;;;;;;22.00;16.70;;;;;;;;;;5045383;28;20413;-79
2022/04/03 01:28:37;;;;;;;22.10;16.23;;;;;;;;;;5028070;28;20414;-79
2022/04/03 01:31:03;;;;;;;21.33;14.77;;;;;;;;;;5045326;28;20414;-79
2022/04/03 01:33:29;;;;;;;19.57;15.47;;;;;;;;;;5045299;28;20405;-79
2022/04/03 01:35:55;;;;;;;22.20;15.23;;;;;;;;;;5045628;28;20477;-79
2022/04/03 01:38:21;;;;;;;18.73;14.33;;;;;;;;;;5029140;28;20433;-79
2022/04/03 01:40:47;;;;;;;20.37;14.90;;;;;;;;;;5025021;28;20757;-79
2022/04/03 01:43:13;;;;;;;15.93;9.60;;;;;;;;;;5026234;28;20407;-79
2022/04/03 01:45:40;;;;;;;22.53;15.00;;;;;;;;;;5025843;28;20468;-78
2022/04/03 01:48:07;;;;;;;28.73;17.77;;;;;;;;;;5008277;28;20450;-78
2022/04/03 01:50:33;;;;;;;25.13;16.63;;;;;;;;;;5025411;28;20412;-78
2022/04/03 01:52:59;;;;;;;24.93;16.43;;;;;;;;;;5025450;28;20419;-78
2022/04/03 01:55:26;;;;;;;19.80;13.27;;;;;;;;;;5007846;28;20410;-78
2022/04/03 01:57:52;;;;;;;22.20;14.57;;;;;;;;;;5025345;28;20430;-78
2022/04/03 02:00:19;;;;;;;23.50;15.70;;;;;;;;;;5025440;28;20457;-78
2022/04/03 02:02:45;;;;;;;24.73;15.97;;;;;;;;;;5024474;28;20910;-78
2022/04/03 02:05:11;;;;;;;22.77;16.70;;;;;;;;;;5024867;28;20395;-78
2022/04/03 02:07:38;;;;;;;25.93;16.80;;;;;;;;;;5007441;28;20427;-78
2022/04/03 02:10:08;;;;;;;24.23;17.30;;;;;;;;;;5025424;28;20485;-78
2022/04/03 02:12:34;;;;;;;25.30;15.13;;;;;;;;;;5025137;28;20399;-78
2022/04/03 02:15:00;;;;;;;27.20;17.63;;;;;;;;;;5025035;28;20412;-79
2022/04/03 02:17:27;;;;;;;27.40;17.90;;;;;;;;;;5024954;28;21169;-78
2022/04/03 02:19:53;;;;;;;27.30;19.43;;;;;;;;;;5007169;28;20451;-79
2022/04/03 02:22:20;;;;;;;25.77;17.23;;;;;;;;;;5006469;28;20438;-78
2022/04/03 02:24:46;;;;;;;22.70;16.17;;;;;;;;;;5024613;28;20408;-79
2022/04/03 02:27:12;;;;;;;27.13;19.17;;;;;;;;;;5006285;28;20510;-79
2022/04/03 02:29:38;;;;;;;26.30;18.20;;;;;;;;;;5024734;28;20423;-79
2022/04/03 02:32:04;;;;;;;25.70;18.70;;;;;;;;;;5024901;28;20411;-79
2022/04/03 02:34:30;;;;;;;29.67;20.43;;;;;;;;;;5024117;28;20757;-79
2022/04/03 02:36:56;;;;;;;29.10;19.50;;;;;;;;;;5023800;28;20434;-79
2022/04/03 02:39:23;;;;;;;31.10;19.73;;;;;;;;;;5024235;28;20494;-79
2022/04/03 02:41:49;;;;;;;30.03;18.70;;;;;;;;;;5024529;28;20404;-79
2022/04/03 02:44:16;;;;;;;24.77;18.13;;;;;;;;;;5024319;28;20446;-78
2022/04/03 02:46:42;;;;;;;31.00;19.63;;;;;;;;;;5004194;28;20487;-77
2022/04/03 02:49:08;;;;;;;27.57;19.67;;;;;;;;;;5021928;28;20844;-78
2022/04/03 02:51:35;;;;;;;24.37;17.83;;;;;;;;;;5021997;28;20408;-78
2022/04/03 02:54:01;;;;;;;28.07;19.33;;;;;;;;;;5022241;28;20466;-79
2022/04/03 02:56:27;;;;;;;29.33;19.37;;;;;;;;;;5004866;28;21002;-79
2022/04/03 02:58:54;;;;;;;29.93;18.60;;;;;;;;;;5022692;28;20457;-79
2022/04/03 03:01:20;;;;;;;24.20;19.03;;;;;;;;;;5004650;28;20418;-79
2022/04/03 03:03:46;;;;;;;25.10;18.60;;;;;;;;;;5022866;28;20793;-78
2022/04/03 03:06:14;;;;;;;30.03;20.63;;;;;;;;;;5021460;28;20403;-78
2022/04/03 03:08:41;;;;;;;28.50;18.70;;;;;;;;;;5021548;28;20400;-79
2022/04/03 03:11:07;;;;;;;24.03;17.60;;;;;;;;;;5004391;28;20820;-78
2022/04/03 03:13:33;;;;;;;27.40;19.03;;;;;;;;;;5022563;28;20419;-78
2022/04/03 03:15:59;;;;;;;23.27;16.33;;;;;;;;;;5038775;28;20414;-77
2022/04/03 03:18:25;;;;;;;27.30;18.10;;;;;;;;;;5055627;28;20405;-77
2022/04/03 03:20:51;;;;;;;24.10;17.20;;;;;;;;;;5055756;28;20417;-77
2022/04/03 03:23:18;;;;;;;26.13;18.93;;;;;;;;;;5059245;28;20406;-77
2022/04/03 03:25:45;;;;;;;23.70;16.90;;;;;;;;;;5049182;28;20421;-79
2022/04/03 03:28:11;;;;;;;29.67;19.30;;;;;;;;;;5046835;28;20800;-78
2022/04/03 03:30:37;;;;;;;24.00;18.57;;;;;;;;;;5047354;28;20402;-78
2022/04/03 03:33:04;;;;;;;23.83;17.70;;;;;;;;;;5028042;28;20755;-79
2022/04/03 03:35:30;;;;;;;23.80;16.30;;;;;;;;;;5048092;28;20403;-79
2022/04/03 03:37:56;;;;;;;25.23;17.63;;;;;;;;;;5047281;28;20489;-79
2022/04/03 03:40:23;;;;;;;27.30;17.20;;;;;;;;;;5047475;28;20813;-79
2022/04/03 03:42:49;;;;;;;26.83;16.47;;;;;;;;;;5029444;28;20421;-79
2022/04/03 03:45:16;;;;;;;23.03;16.10;;;;;;;;;;5029343;28;20398;-79
2022/04/03 03:47:46;;;;;;;20.03;15.13;;;;;;;;;;5046294;28;20430;-79
2022/04/03 03:50:12;;;;;;;20.47;14.20;;;;;;;;;;5027851;28;20480;-78
2022/04/03 03:52:38;;;;;;;26.40;15.70;;;;;;;;;;5045147;28;20407;-79
2022/04/03 03:55:05;;;;;;;23.40;16.07;;;;;;;;;;5044696;28;20478;-78
2022/04/03 03:57:31;;;;;;;24.73;17.47;;;;;;;;;;5028458;28;20422;-79
2022/04/03 03:59:57;;;;;;;26.70;17.10;;;;;;;;;;5028252;28;20525;-79
2022/04/03 04:02:23;;;;;;;24.43;16.30;;;;;;;;;;5044090;28;20483;-78
2022/04/03 04:04:49;;;;;;;25.37;18.20;;;;;;;;;;5045493;28;20395;-78
2022/04/03 04:07:15;;;;;;;26.67;18.00;;;;;;;;;;5028059;28;20942;-78
2022/04/03 04:09:41;;;;;;;25.13;17.03;;;;;;;;;;5045522;28;20425;-78
2022/04/03 04:12:09;;;;;;;27.00;16.70;;;;;;;;;;5045191;28;20411;-78
2022/04/03 04:14:35;;;;;;;28.50;18.00;;;;;;;;;;5028582;28;20417;-78
2022/04/03 04:17:01;;;;;;;28.50;17.80;;;;;;;;;;5027922;28;20493;-79
2022/04/03 04:19:28;;;;;;;25.47;17.67;;;;;;;;;;5045215;28;20442;-79
2022/04/03 04:21:54;;;;;;;24.63;18.70;;;;;;;;;;5043584;28;20425;-79
2022/04/03 04:24:20;;;;;;;22.60;17.13;;;;;;;;;;5044911;28;20405;-78
2022/04/03 04:26:46;;;;;;;27.40;17.03;;;;;;;;;;5044570;28;20435;-78
2022/04/03 04:29:12;;;;;;;27.70;19.57;;;;;;;;;;5027804;28;20927;-78
2022/04/03 04:31:38;;;;;;;29.53;19.50;;;;;;;;;;5045794;28;20402;-79
2022/04/03 04:34:04;;;;;;;26.47;17.40;;;;;;;;;;5046496;28;20411;-78
2022/04/03 04:36:31;;;;;;;28.53;18.43;;;;;;;;;;5045900;28;20458;-78
2022/04/03 04:38:57;;;;;;;32.83;18.43;;;;;;;;;;5046379;28;20950;-78
2022/04/03 04:41:24;;;;;;;26.00;18.17;;;;;;;;;;5045995;28;20402;-78
2022/04/03 04:43:50;;;;;;;26.53;18.23;;;;;;;;;;5047398;28;20476;-78
2022/04/03 04:46:16;;;;;;;24.70;17.90;;;;;;;;;;5046331;28;20426;-78
2022/04/03 04:48:42;;;;;;;27.83;19.90;;;;;;;;;;5046318;28;20415;-78
2022/04/03 04:51:09;;;;;;;25.93;17.67;;;;;;;;;;5046412;28;20453;-78
2022/04/03 04:53:35;;;;;;;25.70;18.70;;;;;;;;;;5046687;28;20414;-78
2022/04/03 04:56:01;;;;;;;26.07;17.73;;;;;;;;;;5046754;28;20426;-78
2022/04/03 04:58:28;;;;;;;26.07;18.70;;;;;;;;;;5046240;28;20844;-78
2022/04/03 05:00:54;;;;;;;35.23;19.60;;;;;;;;;;5040343;28;20403;-79
2022/04/03 05:03:20;;;;;;;26.60;18.20;;;;;;;;;;5040551;28;20406;-79
2022/04/03 05:05:46;;;;;;;27.37;19.60;;;;;;;;;;5047284;28;20407;-79
2022/04/03 05:08:13;;;;;;;29.23;18.00;;;;;;;;;;5047448;28;20479;-79
2022/04/03 05:10:39;;;;;;;32.77;20.87;;;;;;;;;;5049309;28;20402;-79
2022/04/03 05:13:09;;;;;;;29.10;19.00;;;;;;;;;;5047681;28;20437;-79
2022/04/03 05:15:35;;;;;;;24.93;17.80;;;;;;;;;;5048621;28;20407;-79
2022/04/03 05:18:01;;;;;;;28.03;18.80;;;;;;;;;;5046977;28;20962;-79
2022/04/03 05:20:27;;;;;;;26.10;17.90;;;;;;;;;;5047118;28;20980;-79
2022/04/03 05:22:54;;;;;;;29.43;19.60;;;;;;;;;;5046989;28;20417;-79
2022/04/03 05:25:20;;;;;;;29.20;18.97;;;;;;;;;;5047222;28;20917;-79
2022/04/03 05:27:46;;;;;;;30.87;19.37;;;;;;;;;;5050316;23;21029;-77
2022/04/03 05:30:12;;;;;;;32.20;19.63;;;;;;;;;;5034453;28;20407;-76
2022/04/03 05:32:38;;;;;;;27.37;19.60;;;;;;;;;;5034615;28;20391;-76
2022/04/03 05:35:05;;;;;;;23.47;16.80;;;;;;;;;;5034509;28;20399;-76
2022/04/03 05:37:32;;;;;;;27.00;19.57;;;;;;;;;;5016599;28;20961;-76
2022/04/03 05:39:58;;;;;;;25.90;18.37;;;;;;;;;;5033853;28;20447;-76
2022/04/03 05:42:24;;;;;;;27.80;19.20;;;;;;;;;;5034647;28;20403;-76
2022/04/03 05:44:50;;;;;;;28.03;18.43;;;;;;;;;;5034018;28;20398;-76
2022/04/03 05:47:17;;;;;;;30.43;20.93;;;;;;;;;;5034405;28;20553;-76
2022/04/03 05:49:43;;;;;;;25.67;17.10;;;;;;;;;;5016614;28;20406;-76
2022/04/03 05:52:09;;;;;;;28.00;18.20;;;;;;;;;;5034214;28;20399;-76
2022/04/03 05:54:35;;;;;;;25.47;16.87;;;;;;;;;;5034402;28;20404;-76
2022/04/03 05:57:01;;;;;;;26.53;17.83;;;;;;;;;;5034110;28;20414;-76
2022/04/03 05:59:27;;;;;;;26.97;17.23;;;;;;;;;;5034218;28;20812;-77
2022/04/03 06:01:53;;;;;;;21.60;15.80;;;;;;;;;;5034169;28;20481;-76
2022/04/03 06:04:19;;;;;;;22.87;16.73;;;;;;;;;;5034288;28;20390;-76
2022/04/03 06:06:45;;;;;;;23.23;16.83;;;;;;;;;;5033906;28;21009;-76
2022/04/03 06:09:11;;;;;;;24.97;16.17;;;;;;;;;;5016252;28;20450;-76
2022/04/03 06:11:38;;;;;;;21.00;16.30;;;;;;;;;;5034098;28;20489;-76
2022/04/03 06:14:04;;;;;;;23.07;15.70;;;;;;;;;;5034060;28;20418;-76
2022/04/03 06:16:30;;;;;;;23.90;16.37;;;;;;;;;;5034010;28;20787;-76
2022/04/03 06:18:56;;;;;;;19.40;14.60;;;;;;;;;;5016004;28;20477;-76
2022/04/03 06:21:22;;;;;;;23.10;15.40;;;;;;;;;;5033741;28;20745;-76
2022/04/03 06:23:48;;;;;;;20.87;15.20;;;;;;;;;;5016144;28;20403;-76
2022/04/03 06:26:14;;;;;;;22.87;16.30;;;;;;;;;;5033354;28;20460;-76
2022/04/03 06:28:40;;;;;;;18.77;13.30;;;;;;;;;;5033532;28;20442;-76
2022/04/03 06:31:06;;;;;;;25.00;14.77;;;;;;;;;;5033571;28;20778;-76
2022/04/03 06:33:32;;;;;;;16.57;12.17;;;;;;;;;;5033507;28;20934;-76
2022/04/03 06:36:00;;;;;;;16.83;12.23;;;;;;;;;;5033505;28;20965;-76
2022/04/03 06:38:26;;;;;;;17.93;12.47;;;;;;;;;;5033499;28;20467;-76
2022/04/03 06:40:55;;;;;;;21.43;12.47;;;;;;;;;;5033737;28;20449;-76
2022/04/03 06:43:22;;;;;;;16.30;11.70;;;;;;;;;;5033637;28;20409;-76
2022/04/03 06:45:49;;;;;;;12.47;9.93;;;;;;;;;;5033735;28;20430;-76
2022/04/03 06:48:15;;;;;;;16.67;11.70;;;;;;;;;;5015615;28;20438;-76
2022/04/03 06:50:41;;;;;;;19.20;12.30;;;;;;;;;;5033343;28;20460;-76
2022/04/03 06:53:08;;;;;;;16.27;11.47;;;;;;;;;;5033575;28;20402;-76
2022/04/03 06:55:34;;;;;;;18.90;12.93;;;;;;;;;;5033712;28;20500;-76
2022/04/03 06:58:00;;;;;;;19.37;14.80;;;;;;;;;;5037708;28;20422;-76
2022/04/03 07:00:26;;;;;;;20.93;13.40;;;;;;;;;;5037439;28;20450;-76
2022/04/03 07:02:52;;;;;;;23.10;15.03;;;;;;;;;;5037345;28;20497;-76
2022/04/03 07:05:18;;;;;;;19.53;12.53;;;;;;;;;;5037642;28;20403;-76
2022/04/03 07:07:44;;;;;;;23.23;14.80;;;;;;;;;;5037110;28;20425;-76
2022/04/03 07:10:11;;;;;;;21.07;14.40;;;;;;;;;;5037409;28;20468;-76
2022/04/03 07:12:37;;;;;;;21.23;14.20;;;;;;;;;;5037014;28;20414;-76
2022/04/03 07:15:04;;;;;;;22.70;14.90;;;;;;;;;;5037136;28;20402;-76
2022/04/03 07:17:30;;;;;;;19.50;14.90;;;;;;;;;;5036800;28;20429;-76
2022/04/03 07:19:56;;;;;;;28.80;15.00;;;;;;;;;;5037005;28;20540;-77
2022/04/03 07:22:22;;;;;;;17.20;12.93;;;;;;;;;;5037264;28;20502;-76
2022/04/03 07:24:48;;;;;;;18.27;12.63;;;;;;;;;;5037303;28;20426;-76
2022/04/03 07:27:14;;;;;;;17.73;13.30;;;;;;;;;;5036311;28;20440;-76
2022/04/03 07:29:40;;;;;;;18.23;13.53;;;;;;;;;;5036940;28;20410;-76
2022/04/03 07:32:07;;;;;;;17.50;12.97;;;;;;;;;;5036633;28;20402;-76
2022/04/03 07:34:33;;;;;;;15.03;11.60;;;;;;;;;;5036822;28;20414;-76
2022/04/03 07:36:59;;;;;;;15.30;10.70;;;;;;;;;;5036476;28;20449;-76
2022/04/03 07:39:28;;;;;;;17.50;11.63;;;;;;;;;;5036464;28;20540;-76
2022/04/03 07:41:54;;;;;;;12.43;10.17;;;;;;;;;;5036396;28;20829;-76
2022/04/03 07:44:20;;;;;;;20.23;11.70;;;;;;;;;;5018736;28;20406;-76
2022/04/03 07:46:46;;;;;;;13.10;9.50;;;;;;;;;;5036462;28;20437;-76
2022/04/03 07:49:12;;;;;;;20.17;11.33;;;;;;;;;;5036493;28;20410;-76
2022/04/03 07:51:38;;;;;;;13.00;10.60;;;;;;;;;;5036607;28;20406;-76
2022/04/03 07:54:05;;;;;;;19.73;12.37;;;;;;;;;;5036264;28;20406;-76
2022/04/03 07:56:31;;;;;;;10.80;9.10;;;;;;;;;;5036116;28;20902;-77
2022/04/03 07:58:57;;;;;;;15.47;8.87;;;;;;;;;;5036512;28;20507;-76
2022/04/03 08:01:23;;;;;;;17.30;10.83;;;;;;;;;;5036469;28;20776;-76
2022/04/03 08:03:49;;;;;;;15.70;10.73;;;;;;;;;;5035177;28;20453;-76
2022/04/03 08:06:15;;;;;;;15.53;10.83;;;;;;;;;;5034603;28;20422;-77
2022/04/03 08:08:42;;;;;;;17.63;10.80;;;;;;;;;;5034858;28;20485;-77
2022/04/03 08:11:09;;;;;;;14.30;10.47;;;;;;;;;;5036380;28;20556;-76
2022/04/03 08:13:35;;;;;;;15.50;12.20;;;;;;;;;;5035195;28;20442;-76
2022/04/03 08:16:01;;;;;;;20.43;14.63;;;;;;;;;;5035713;28;20772;-76
2022/04/03 08:18:28;;;;;;;22.70;13.13;;;;;;;;;;5035171;28;20457;-76
2022/04/03 08:20:54;;;;;;;13.93;11.63;;;;;;;;;;5034211;28;20473;-77
2022/04/03 08:23:22;;;;;;;23.03;14.13;;;;;;;;;;5038120;28;20391;-77
2022/04/03 08:25:48;;;;;;;16.83;12.93;;;;;;;;;;5036908;28;20414;-77
2022/04/03 08:28:17;;;;;;;18.80;14.20;;;;;;;;;;5035134;28;20454;-77
2022/04/03 08:30:43;;;;;;;22.57;13.37;;;;;;;;;;5037924;28;20740;-78
2022/04/03 08:33:10;;;;;;;20.33;13.83;;;;;;;;;;5035959;28;20846;-77
2022/04/03 08:35:40;;;;;;;14.93;12.43;;;;;;;;;;5036515;28;20529;-77
2022/04/03 08:38:07;;;;;;;13.17;11.00;;;;;;;;;;5036758;28;20493;-77
2022/04/03 08:40:33;;;;;;;21.13;12.70;;;;;;;;;;5035681;28;20450;-77
2022/04/03 08:43:00;;;;;;;14.50;11.33;;;;;;;;;;5035914;28;20468;-77
2022/04/03 08:45:27;;;;;;;12.83;11.30;;;;;;;;;;5035539;28;20414;-77
2022/04/03 08:47:54;;;;;;;15.57;12.27;;;;;;;;;;5034474;28;20442;-76
2022/04/03 08:50:24;;;;;;;15.67;10.83;;;;;;;;;;5035385;28;20520;-77
2022/04/03 08:52:51;;;;;;;14.47;11.00;;;;;;;;;;5034886;28;20484;-76
2022/04/03 08:55:19;;;;;;;11.00;9.60;;;;;;;;;;5033714;28;20438;-77
2022/04/03 08:57:45;;;;;;;13.60;10.30;;;;;;;;;;5035695;28;20433;-76
2022/04/03 09:00:13;;;;;;;13.60;9.50;;;;;;;;;;5017952;28;20458;-76
2022/04/03 09:02:39;;;;;;;12.83;10.93;;;;;;;;;;5035404;28;20411;-76
2022/04/03 09:05:06;;;;;;;13.03;9.53;;;;;;;;;;5035305;28;20747;-77
2022/04/03 09:07:32;;;;;;;13.03;9.20;;;;;;;;;;5035162;28;20434;-77
2022/04/03 09:10:08;;;;;;;12.33;10.97;;;;;;;;;;5034705;28;20402;-77
2022/04/03 09:12:42;;;;;;;12.37;10.20;;;;;;;;;;5034936;28;20430;-76
2022/04/03 09:15:11;;;;;;;12.40;9.87;;;;;;;;;;5034951;28;20391;-76
2022/04/03 09:17:40;;;;;;;11.00;8.87;;;;;;;;;;5034702;28;20427;-77
2022/04/03 09:20:12;;;;;;;13.90;7.63;;;;;;;;;;5033826;28;20454;-76
2022/04/03 09:22:39;;;;;;;11.93;8.10;;;;;;;;;;5035877;28;20405;-77
2022/04/03 09:25:06;;;;;;;11.60;8.00;;;;;;;;;;5034630;28;20517;-77
2022/04/03 09:27:35;;;;;;;14.40;9.40;;;;;;;;;;5034934;28;20458;-77
2022/04/03 09:30:05;;;;;;;20.43;9.57;;;;;;;;;;5034847;28;20409;-77
2022/04/03 09:32:32;;;;;;;19.10;13.70;;;;;;;;;;5034645;28;20445;-77
2022/04/03 09:34:58;;;;;;;26.27;23.73;;;;;;;;;;5018991;28;20411;-77
2022/04/03 09:37:24;;;;;;;17.47;13.93;;;;;;;;;;5017279;28;20852;-77
2022/04/03 09:39:50;;;;;;;12.63;9.70;;;;;;;;;;5034778;28;20484;-77
2022/04/03 09:42:17;;;;;;;8.87;8.00;;;;;;;;;;5035024;28;20395;-77
2022/04/03 09:44:44;;;;;;;10.77;7.70;;;;;;;;;;5034369;28;20440;-77
2022/04/03 09:47:15;;;;;;;10.60;8.57;;;;;;;;;;5034176;28;20454;-77
2022/04/03 09:49:47;;;;;;;12.97;8.77;;;;;;;;;;5034257;28;20402;-77
2022/04/03 09:52:13;;;;;;;10.63;8.20;;;;;;;;;;5034473;28;20407;-77
2022/04/03 09:54:39;;;;;;;9.13;6.90;;;;;;;;;;5034171;28;20902;-77
2022/04/03 09:57:21;;;;;;;9.80;7.03;;;;;;;;;;5034759;28;20452;-77
2022/04/03 09:59:54;;;;;;;11.43;7.97;;;;;;;;;;5034914;28;20450;-77
2022/04/03 10:02:21;;;;;;;12.70;9.50;;;;;;;;;;5035371;28;20432;-77
2022/04/03 10:04:47;;;;;;;7.70;6.77;;;;;;;;;;5036394;28;20482;-78
2022/04/03 10:07:14;;;;;;;8.77;7.30;;;;;;;;;;5037615;28;20434;-77
2022/04/03 10:09:48;;;;;;;9.30;7.83;;;;;;;;;;5035067;28;20411;-78
2022/04/03 10:12:21;;;;;;;8.07;7.27;;;;;;;;;;5034595;28;20439;-77
2022/04/03 10:14:49;;;;;;;11.17;7.20;;;;;;;;;;5035133;28;20410;-77
2022/04/03 10:17:16;;;;;;;21.43;8.60;;;;;;;;;;5016638;28;20430;-77
2022/04/03 10:19:42;;;;;;;9.90;8.10;;;;;;;;;;5034066;28;20799;-77
2022/04/03 10:22:14;;;;;;;7.57;6.83;;;;;;;;;;5035657;28;20429;-77
2022/04/03 10:24:42;;;;;;;11.63;6.27;;;;;;;;;;5037469;28;20402;-77
2022/04/03 10:27:14;;;;;;;7.43;6.13;;;;;;;;;;5037219;28;20460;-78
2022/04/03 10:29:41;;;;;;;9.70;7.43;;;;;;;;;;5037794;28;20402;-77
2022/04/03 10:32:07;;;;;;;11.13;8.10;;;;;;;;;;5037703;28;20410;-78
2022/04/03 10:34:47;;;;;;;9.60;7.27;;;;;;;;;;5036538;28;20426;-78
2022/04/03 10:37:23;;;;;;;9.30;6.50;;;;;;;;;;5036400;28;20426;-77
2022/04/03 10:39:53;;;;;;;13.20;9.20;;;;;;;;;;5037179;28;20461;-77
2022/04/03 10:42:28;;;;;;;10.43;7.60;;;;;;;;;;5036367;28;20790;-78
2022/04/03 10:45:12;;;;;;;8.80;7.10;;;;;;;;;;5036968;28;20386;-77
2022/04/03 10:47:39;;;;;;;6.93;6.23;;;;;;;;;;5036637;28;20926;-77
2022/04/03 10:50:06;;;;;;;7.83;6.40;;;;;;;;;;5019089;28;20441;-80
2022/04/03 10:52:38;;;;;;;7.17;5.80;;;;;;;;;;5037389;28;20409;-77
2022/04/03 10:55:23;;;;;;;9.60;7.03;;;;;;;;;;5037027;28;20893;-78
2022/04/03 10:57:50;;;;;;;10.97;7.93;;;;;;;;;;5055130;28;20440;-77
2022/04/03 11:00:16;;;;;;;11.17;8.37;;;;;;;;;;5016653;28;20481;-77
2022/04/03 11:02:42;;;;;;;14.10;9.00;;;;;;;;;;5034757;28;20413;-77
2022/04/03 11:05:26;;;;;;;9.80;7.17;;;;;;;;;;5034817;28;20398;-77
2022/04/03 11:07:52;;;;;;;7.37;5.90;;;;;;;;;;5034778;28;20509;-77
2022/04/03 11:10:38;;;;;;;7.60;6.87;;;;;;;;;;5035517;28;20407;-77
2022/04/03 11:13:08;;;;;;;9.13;6.10;;;;;;;;;;5035734;28;20497;-77
2022/04/03 11:15:45;;;;;;;8.87;6.67;;;;;;;;;;5036690;28;20481;-78
2022/04/03 11:18:29;;;;;;;8.20;6.60;;;;;;;;;;5036713;28;20817;-78
2022/04/03 11:21:11;;;;;;;8.23;5.60;;;;;;;;;;5037080;28;20449;-78
2022/04/03 11:23:39;;;;;;;8.30;6.23;;;;;;;;;;5037131;28;20423;-78
2022/04/03 11:26:08;;;;;;;7.40;6.23;;;;;;;;;;5036562;28;20402;-78
2022/04/03 11:28:34;;;;;;;11.67;6.83;;;;;;;;;;5056285;23;20487;-83
2022/04/03 11:31:00;;;;;;;8.73;6.70;;;;;;;;;;5029607;28;20410;-82
2022/04/03 11:33:28;;;;;;;9.13;7.50;;;;;;;;;;5042906;28;20410;-83
2022/04/03 11:35:54;;;;;;;9.80;6.67;;;;;;;;;;5042818;28;20406;-82
2022/04/03 11:38:21;;;;;;;10.93;8.10;;;;;;;;;;5041669;28;20469;-84
2022/04/03 11:40:47;;;;;;;9.40;6.50;;;;;;;;;;5041127;28;20449;-83
2022/04/03 11:43:13;;;;;;;7.00;6.27;;;;;;;;;;5044203;28;20426;-83
2022/04/03 11:45:39;;;;;;;10.93;7.97;;;;;;;;;;5027931;28;20409;-82
2022/04/03 11:48:13;;;;;;;9.00;6.87;;;;;;;;;;5045200;28;20937;-83
2022/04/03 11:50:39;;;;;;;9.80;6.97;;;;;;;;;;5045257;28;20394;-82
2022/04/03 11:53:08;;;;;;;8.87;6.50;;;;;;;;;;5044355;28;20426;-82
2022/04/03 11:55:35;;;;;;;7.60;5.93;;;;;;;;;;5044835;28;20429;-82
2022/04/03 11:58:04;;;;;;;6.80;5.90;;;;;;;;;;5042494;28;20660;-82
2022/04/03 12:00:31;;;;;;;7.90;5.90;;;;;;;;;;5025118;28;20457;-83
2022/04/03 12:02:57;;;;;;;6.70;6.00;;;;;;;;;;5043695;28;20469;-82
2022/04/03 12:05:23;;;;;;;9.23;5.37;;;;;;;;;;5044100;28;20425;-81
2022/04/03 12:07:50;;;;;;;7.47;4.93;;;;;;;;;;5039551;28;20779;-81
2022/04/03 12:10:23;;;;;;;5.27;4.77;;;;;;;;;;5041144;28;20449;-80
2022/04/03 12:12:49;;;;;;;6.33;4.90;;;;;;;;;;5038760;28;20452;-80
2022/04/03 12:15:15;;;;;;;5.60;4.70;;;;;;;;;;5039317;28;20445;-81
2022/04/03 12:17:43;;;;;;;5.43;4.60;;;;;;;;;;5040358;28;20430;-81
2022/04/03 12:20:12;;;;;;;7.87;5.60;;;;;;;;;;5042653;28;20450;-81
2022/04/03 12:22:42;;;;;;;5.60;4.80;;;;;;;;;;5024408;28;20419;-81
2022/04/03 12:25:08;;;;;;;6.13;4.53;;;;;;;;;;5041967;28;20921;-80
2022/04/03 12:27:37;;;;;;;4.37;3.80;;;;;;;;;;5040893;28;20453;-81
2022/04/03 12:30:04;;;;;;;4.60;3.63;;;;;;;;;;5042885;28;20890;-80
2022/04/03 12:32:32;;;;;;;7.33;3.80;;;;;;;;;;5024505;28;20418;-81
2022/04/03 12:34:58;;;;;;;5.70;3.60;;;;;;;;;;5046147;28;20418;-81
2022/04/03 12:37:25;;;;;;;6.20;3.83;;;;;;;;;;5042401;28;20490;-80
2022/04/03 12:39:51;;;;;;;6.30;4.57;;;;;;;;;;5043581;28;20450;-80
2022/04/03 12:42:26;;;;;;;6.00;4.37;;;;;;;;;;5045803;28;20438;-81
2022/04/03 12:44:54;;;;;;;5.50;4.60;;;;;;;;;;5044564;28;20493;-81
2022/04/03 12:47:20;;;;;;;7.00;3.57;;;;;;;;;;5045196;28;20399;-81
2022/04/03 12:49:50;;;;;;;5.13;3.50;;;;;;;;;;5046845;28;20429;-81
2022/04/03 12:52:39;;;;;;;6.77;4.50;;;;;;;;;;5026947;28;20424;-80
2022/04/03 12:55:06;;;;;;;4.80;3.97;;;;;;;;;;5038699;28;20961;-80
2022/04/03 13:00:18;;;;;;;5.07;3.23;;;;;;;;;;5045795;28;20453;-81
2022/04/03 13:02:45;;;;;;;6.97;4.03;;;;;;;;;;5045618;28;20969;-80
2022/04/03 13:05:15;;;;;;;5.20;3.30;;;;;;;;;;5045211;28;20399;-80
2022/04/03 13:07:41;;;;;;;4.43;3.80;;;;;;;;;;5047634;28;20529;-80
2022/04/03 13:10:13;;;;;;;4.47;4.07;;;;;;;;;;5044644;28;20426;-80
2022/04/03 13:12:40;;;;;;;5.93;4.20;;;;;;;;;;5026683;28;20422;-81
2022/04/03 13:15:06;;;;;;;4.90;3.80;;;;;;;;;;5050237;28;20394;-80
2022/04/03 13:17:32;;;;;;;4.60;3.93;;;;;;;;;;5051038;28;20430;-80
2022/04/03 13:19:58;;;;;;;7.30;4.60;;;;;;;;;;5050965;28;20469;-80
2022/04/03 13:22:24;;;;;;;5.03;4.27;;;;;;;;;;5050601;28;20471;-79
2022/04/03 13:24:50;;;;;;;6.40;4.87;;;;;;;;;;5046943;28;20403;-81
2022/04/03 13:27:16;;;;;;;5.90;3.87;;;;;;;;;;5045888;28;20406;-81
2022/04/03 13:29:42;;;;;;;9.27;4.40;;;;;;;;;;5046146;28;20399;-81
2022/04/03 13:32:08;;;;;;;5.60;4.53;;;;;;;;;;5039569;28;20403;-81
2022/04/03 13:34:34;;;;;;;6.03;4.63;;;;;;;;;;5021366;28;20430;-81
2022/04/03 13:37:00;;;;;;;6.03;4.70;;;;;;;;;;5039409;28;20407;-82
2022/04/03 13:39:27;;;;;;;5.67;4.17;;;;;;;;;;5037826;28;20454;-81
2022/04/03 13:41:55;;;;;;;4.93;3.93;;;;;;;;;;5037740;28;20948;-81
2022/04/03 13:44:21;;;;;;;7.17;5.93;;;;;;;;;;5037911;28;20434;-82
2022/04/03 13:46:48;;;;;;;5.73;5.03;;;;;;;;;;5037241;28;20403;-82
2022/04/03 13:49:14;;;;;;;7.60;5.57;;;;;;;;;;5037950;28;20445;-82
2022/04/03 13:51:40;;;;;;;6.07;4.10;;;;;;;;;;5037320;28;20406;-83
2022/04/03 13:54:07;;;;;;;5.00;4.13;;;;;;;;;;5037239;28;20410;-82
2022/04/03 13:56:33;;;;;;;6.40;5.33;;;;;;;;;;5037698;28;20498;-83
2022/04/03 13:59:00;;;;;;;8.77;5.67;;;;;;;;;;5019901;28;20458;-83
2022/04/03 14:01:29;;;;;;;4.83;3.97;;;;;;;;;;5041689;28;20410;-83
2022/04/03 14:03:55;;;;;;;5.93;4.10;;;;;;;;;;5043434;28;20470;-83
2022/04/03 14:06:22;;;;;;;6.57;4.70;;;;;;;;;;5039762;28;20411;-84
2022/04/03 14:08:48;;;;;;;4.63;4.00;;;;;;;;;;5021592;28;20426;-82
2022/04/03 14:11:14;;;;;;;5.23;4.20;;;;;;;;;;5038711;28;20483;-82
2022/04/03 14:13:40;;;;;;;6.20;4.70;;;;;;;;;;5037994;28;20406;-82
2022/04/03 14:16:06;;;;;;;6.13;4.90;;;;;;;;;;5037837;28;20489;-83
2022/04/03 14:18:40;;;;;;;4.83;4.43;;;;;;;;;;5020138;28;20441;-82
2022/04/03 14:21:07;;;;;;;6.07;4.43;;;;;;;;;;5037467;28;20391;-82
2022/04/03 14:23:36;;;;;;;5.90;4.37;;;;;;;;;;5037906;28;20426;-82
2022/04/03 14:26:03;;;;;;;6.03;4.10;;;;;;;;;;5021674;28;20407;-84
2022/04/03 14:28:29;;;;;;;6.37;4.43;;;;;;;;;;5041614;28;20962;-83